KFWN

Details ICAO KFWN
Name SUSSEX
Region United States
Timezone America/New_York (UTC-4.0)
Plans Departing 20
Arriving 5
Stats Elevation 421 ft / 128 m (AMSL)
Location 41.200198° -74.623039°
Runways 1
Magnetic Variation 12.686° W
Sunrise 2018-05-24 09:34:05 UTC / 2018-05-24 05:34:05 Local
Sunset 2018-05-25 00:19:29 UTC / 2018-05-24 20:19:29 Local
Advertisement - Login to hide

Runways

ID Width Length Bearing (true) Bearing (mag) Surface Threshold Offset Overrun Length
03 75 ft / 23 m 3,503 ft / 1,068 m 15.89° 28.58° Asphalt 1,100 ft / 335 m 0 ft / 0 m
21 75 ft / 23 m 3,503 ft / 1,068 m 195.89° 208.58° Asphalt 750 ft / 229 m 0 ft / 0 m

Map

Weather


0- 5 10 15 20 25 30 35+ Temperature / ° C

Clouds and Precipitation
Forecast for 2018-05-24 18:00 UTC. Updated 3 hours ago

Ground ~20,000 ft ~40,000 ft Winds

METAR

KFWN 241953Z AUTO VRB04KT 10SM CLR 28/06 A3008 RMK AO2 SLP186 T02830056

TAF

Not found

Frequencies

Recorded 118.52 MHz ASOS
Approach 127.60 MHz NEW YORK APP/DEP
Unicom 122.70 MHz CTAF/UNICOM
Warning: Do not use this data for real-world aviation or navigation. No guarantee of current accuracy is given.